Time;durP1;ratioP1;P1;durP2;ratioP2;P2;SDS_P1;SDS_P2;PMS_P1;PMS_P2;Temp;Humidity;BMP_temperature;BMP_pressure;BME280_temperature;BME280_humidity;BME280_pressure;Samples;Min_cycle;Max_cycle;Signal;HPM_P1;HPM_P2
2023/10/13 00:00:47;;;;;;;;;;;;;;;8.56;83.09;98339.22;4944814;28;20022;-66
2023/10/13 00:03:16;;;;;;;;;;;;;;;8.51;83.52;98337.44;4944654;28;20017;-65
2023/10/13 00:05:42;;;;;;;;;;;;;;;8.46;83.93;98334.72;4943561;29;19926;-66
2023/10/13 00:08:09;;;;;;;;;;;;;;;8.43;83.90;98318.16;4942809;29;19997;-66
2023/10/13 00:10:34;;;;;;;;;;;;;;;8.45;83.46;98341.28;4943211;28;19930;-67
2023/10/13 00:13:11;;;;;;;;;;;;;;;8.43;83.54;98345.41;4944240;29;19926;-67
2023/10/13 00:15:56;;;;;;;;;;;;;;;8.41;83.65;98356.59;4959952;28;19931;-67
2023/10/13 00:18:26;;;;;;;;;;;;;;;8.42;83.27;98350.06;4944133;28;19926;-67
2023/10/13 00:20:52;;;;;;;;;;;;;;;8.35;83.67;98361.31;4945765;28;20162;-68
2023/10/13 00:23:21;;;;;;;;;;;;;;;8.33;83.58;98360.81;4944576;28;20013;-66
2023/10/13 00:25:56;;;;;;;;;;;;;;;8.32;83.37;98355.66;4943507;28;19930;-66
2023/10/13 00:28:26;;;;;;;;;;;;;;;8.25;83.94;98352.50;4960005;28;20042;-67
2023/10/13 00:30:53;;;;;;;;;;;;;;;8.19;84.33;98365.38;4943891;29;19930;-67
2023/10/13 00:33:22;;;;;;;;;;;;;;;8.23;83.80;98369.13;4958242;28;19926;-68
2023/10/13 00:35:54;;;;;;;;;;;;;;;8.21;83.78;98363.97;4907390;29;20299;-67
2023/10/13 00:38:19;;;;;;;;;;;;;;;8.16;83.97;98360.53;4956157;28;19926;-66
2023/10/13 00:40:51;;;;;;;;;;;;;;;7.95;83.86;98356.16;4962544;28;19926;-67
2023/10/13 00:45:54;;;;;;;;;;;;;;;8.14;84.09;98376.34;4964446;28;20445;-67
2023/10/13 00:48:24;;;;;;;;;;;;;;;8.14;83.78;98363.53;4948512;28;20412;-68
2023/10/13 00:50:51;;;;;;;;;;;;;;;8.12;83.80;98373.06;4946996;28;19926;-67
2023/10/13 00:53:17;;;;;;;;;;;;;;;8.11;83.80;98372.28;4946569;28;19993;-66
2023/10/13 00:55:44;;;;;;;;;;;;;;;8.14;83.57;98363.53;4931305;29;20389;-66
2023/10/13 00:58:12;;;;;;;;;;;;;;;8.14;83.62;98382.59;4946526;28;19989;-64
2023/10/13 01:00:47;;;;;;;;;;;;;;;8.14;83.46;98403.56;4948278;28;19933;-66
2023/10/13 01:03:13;;;;;;;;;;;;;;;8.14;83.10;98393.47;4961857;28;19933;-67
2023/10/13 01:05:39;;;;;;;;;;;;;;;8.18;83.16;98382.81;4964200;28;19926;-67
2023/10/13 01:08:11;;;;;;;;;;;;;;;8.25;82.51;98391.41;4965814;28;20016;-67
2023/10/13 01:10:37;;;;;;;;;;;;;;;8.31;82.05;98394.88;4964554;28;19925;-66
2023/10/13 01:13:03;;;;;;;;;;;;;;;8.38;81.75;98387.16;4965960;28;20029;-67
2023/10/13 01:15:33;;;;;;;;;;;;;;;8.43;80.70;98392.53;4964961;28;20020;-66
2023/10/13 01:18:10;;;;;;;;;;;;;;;8.50;80.34;98397.63;4964863;28;20198;-66
2023/10/13 01:20:43;;;;;;;;;;;;;;;8.53;79.93;98377.19;4967976;28;19932;-66
2023/10/13 01:23:24;;;;;;;;;;;;;;;8.54;80.09;98382.31;4964202;28;19926;-66
2023/10/13 01:25:50;;;;;;;;;;;;;;;8.54;79.91;98393.22;4955026;28;20456;-66
2023/10/13 01:28:16;;;;;;;;;;;;;;;8.52;80.06;98368.19;4966874;28;20294;-67
2023/10/13 01:30:42;;;;;;;;;;;;;;;8.53;80.21;98401.69;4966161;28;20433;-66
2023/10/13 01:33:10;;;;;;;;;;;;;;;8.55;80.37;98396.75;4963857;28;20420;-67
2023/10/13 01:35:41;;;;;;;;;;;;;;;8.53;80.37;98405.22;4965801;28;19947;-66
2023/10/13 01:38:07;;;;;;;;;;;;;;;8.53;80.17;98397.03;4964225;28;19925;-66
2023/10/13 01:40:34;;;;;;;;;;;;;;;8.54;80.00;98395.13;4965608;28;20365;-67
2023/10/13 01:43:00;;;;;;;;;;;;;;;8.51;80.34;98394.63;4965820;28;20300;-67
2023/10/13 01:45:28;;;;;;;;;;;;;;;8.53;80.23;98415.31;4968112;28;19926;-67
2023/10/13 01:47:54;;;;;;;;;;;;;;;8.51;80.28;98413.69;4965460;28;19929;-66
2023/10/13 01:50:21;;;;;;;;;;;;;;;8.51;80.42;98402.81;4964537;28;20004;-67
2023/10/13 01:52:46;;;;;;;;;;;;;;;8.50;80.43;98411.25;4964957;28;19984;-65
2023/10/13 01:55:14;;;;;;;;;;;;;;;8.50;80.41;98406.59;4963513;28;20235;-67
2023/10/13 01:57:46;;;;;;;;;;;;;;;8.51;80.64;98426.50;4962438;28;19965;-66
2023/10/13 02:00:19;;;;;;;;;;;;;;;8.50;80.51;98416.72;4949974;28;20030;-67
2023/10/13 02:02:45;;;;;;;;;;;;;;;8.50;80.50;98409.31;4966354;28;19980;-67
2023/10/13 02:05:11;;;;;;;;;;;;;;;8.49;80.40;98410.41;4964183;28;21065;-65
2023/10/13 02:07:38;;;;;;;;;;;;;;;8.46;80.44;98426.56;4964164;28;20416;-65
2023/10/13 02:10:05;;;;;;;;;;;;;;;8.43;80.56;98414.31;4930577;28;20036;-66
2023/10/13 02:12:42;;;;;;;;;;;;;;;8.31;81.20;98412.03;4965058;28;19984;-67
2023/10/13 02:15:12;;;;;;;;;;;;;;;8.17;81.79;98436.44;4946948;28;20330;-66
2023/10/13 02:17:41;;;;;;;;;;;;;;;8.12;82.17;98422.09;4965221;28;20362;-66
2023/10/13 02:20:14;;;;;;;;;;;;;;;8.08;82.35;98435.50;4964301;28;19926;-67
2023/10/13 02:22:48;;;;;;;;;;;;;;;8.08;82.63;98424.59;4959481;28;19981;-66
2023/10/13 02:25:17;;;;;;;;;;;;;;;8.07;82.31;98451.00;4955292;28;20348;-67
2023/10/13 02:27:57;;;;;;;;;;;;;;;8.06;82.17;98445.88;4959276;28;19961;-67
2023/10/13 02:30:25;;;;;;;;;;;;;;;7.99;82.28;98448.13;4965891;28;20307;-67
2023/10/13 02:32:53;;;;;;;;;;;;;;;7.93;82.26;98444.63;4964850;28;19926;-67
2023/10/13 02:35:20;;;;;;;;;;;;;;;7.91;82.25;98442.22;4964196;28;19926;-67
2023/10/13 02:37:54;;;;;;;;;;;;;;;7.92;81.77;98460.19;4966096;28;19926;-67
2023/10/13 02:40:23;;;;;;;;;;;;;;;7.97;81.47;98453.88;4965082;28;20486;-66
2023/10/13 02:42:49;;;;;;;;;;;;;;;8.04;81.03;98457.03;4964120;28;19965;-68
2023/10/13 02:45:15;;;;;;;;;;;;;;;8.11;80.84;98464.84;4964764;28;19926;-68
2023/10/13 02:47:45;;;;;;;;;;;;;;;8.22;80.36;98466.34;4947921;28;19925;-67
2023/10/13 02:50:17;;;;;;;;;;;;;;;8.31;79.71;98474.69;4963601;28;19957;-67
2023/10/13 02:52:47;;;;;;;;;;;;;;;8.32;80.17;98461.84;4961191;28;20024;-66
2023/10/13 02:55:14;;;;;;;;;;;;;;;8.26;80.29;98466.56;4948098;28;20412;-67
2023/10/13 02:57:41;;;;;;;;;;;;;;;8.21;80.68;98467.47;4944065;29;20265;-65
2023/10/13 03:00:15;;;;;;;;;;;;;;;8.17;80.79;98468.31;4960053;28;19926;-66
2023/10/13 03:02:53;;;;;;;;;;;;;;;8.20;81.05;98473.19;4964153;28;19925;-67
2023/10/13 03:05:22;;;;;;;;;;;;;;;8.20;80.79;98479.44;4946269;28;20064;-66
2023/10/13 03:07:50;;;;;;;;;;;;;;;8.21;80.43;98488.41;4963669;28;19989;-68
2023/10/13 03:10:19;;;;;;;;;;;;;;;8.18;80.51;98487.06;4964779;28;20020;-66
2023/10/13 03:12:48;;;;;;;;;;;;;;;8.17;80.54;98496.34;4964269;28;20024;-66
2023/10/13 03:15:17;;;;;;;;;;;;;;;8.07;80.38;98474.72;4962805;28;19926;-65
2023/10/13 03:17:45;;;;;;;;;;;;;;;8.15;80.35;98489.59;4958487;28;19929;-66
2023/10/13 03:20:13;;;;;;;;;;;;;;;8.19;80.28;98490.63;4964036;28;20033;-66
2023/10/13 03:22:39;;;;;;;;;;;;;;;8.27;80.03;98506.31;4963956;28;19957;-68
2023/10/13 03:25:07;;;;;;;;;;;;;;;8.31;79.61;98490.19;4946139;28;19933;-66
2023/10/13 03:28:01;;;;;;;;;;;;;;;8.33;79.10;98488.81;4946227;28;19926;-67
2023/10/13 03:30:38;;;;;;;;;;;;;;;8.35;79.12;98493.94;4963356;28;19926;-66
2023/10/13 03:33:12;;;;;;;;;;;;;;;8.26;79.12;98498.44;4946059;28;19952;-67
2023/10/13 03:35:41;;;;;;;;;;;;;;;8.11;79.66;98496.69;4945909;28;19932;-66
2023/10/13 03:38:17;;;;;;;;;;;;;;;7.97;79.32;98507.47;4962993;28;19926;-66
2023/10/13 03:40:48;;;;;;;;;;;;;;;7.86;80.16;98504.84;4962785;28;19984;-67
2023/10/13 03:43:16;;;;;;;;;;;;;;;7.82;80.81;98520.16;4953884;28;20271;-67
2023/10/13 03:45:42;;;;;;;;;;;;;;;7.85;80.66;98516.03;4962118;28;19933;-66
2023/10/13 03:51:07;;;;;;;;;;;;;;;7.75;80.89;98514.25;4964123;28;20361;-66
2023/10/13 03:53:33;;;;;;;;;;;;;;;7.70;81.13;98525.16;4959349;28;19926;-67
2023/10/13 03:56:08;;;;;;;;;;;;;;;7.62;81.38;98518.44;4952188;28;19961;-67
2023/10/13 03:58:34;;;;;;;;;;;;;;;7.60;81.85;98515.19;4966053;28;19926;-66
2023/10/13 04:01:00;;;;;;;;;;;;;;;7.63;81.10;98525.50;4965441;28;19933;-65
2023/10/13 04:03:33;;;;;;;;;;;;;;;7.60;81.38;98543.22;4963650;28;19926;-66
2023/10/13 04:06:18;;;;;;;;;;;;;;;7.63;81.25;98571.75;4963770;28;19980;-66
2023/10/13 04:08:49;;;;;;;;;;;;;;;7.69;80.66;98558.91;4964615;28;20429;-66
2023/10/13 04:17:11;;;;;;;;;;;;;;;7.92;78.96;98573.66;4963555;28;19926;-65
2023/10/13 04:20:12;;;;;;;;;;;;;;;7.98;78.54;98575.25;4962603;28;19930;-66
2023/10/13 04:22:20;;;;;;;;;;;;;;;7.89;78.66;98569.63;4962841;28;19960;-66
2023/10/13 04:25:28;;;;;;;;;;;;;;;7.82;78.87;98581.94;4962768;28;19930;-67
2023/10/13 04:30:57;;;;;;;;;;;;;;;7.73;79.17;98581.75;4950023;28;20012;-66
2023/10/13 04:36:20;;;;;;;;;;;;;;;7.76;79.59;98592.84;4958462;28;19926;-65
2023/10/13 04:41:23;;;;;;;;;;;;;;;7.93;78.73;98618.84;4962893;28;19930;-65
2023/10/13 04:44:04;;;;;;;;;;;;;;;7.98;78.25;98607.91;4947083;28;19934;-67
2023/10/13 04:49:35;;;;;;;;;;;;;;;7.95;78.58;98606.56;4949618;28;19926;-66
2023/10/13 06:29:36;;;;;;;;;;;;;;;9.17;67.25;98777.56;4965440;28;19926;-68
2023/10/13 06:32:01;;;;;;;;;;;;;;;9.17;66.91;98772.91;4945450;28;20417;-68
2023/10/13 06:34:45;;;;;;;;;;;;;;;9.14;67.67;98759.06;4938981;28;19969;-68
2023/10/13 06:39:56;;;;;;;;;;;;;;;9.06;66.59;98779.59;4961280;28;19926;-68
2023/10/13 06:42:22;;;;;;;;;;;;;;;9.03;66.83;98801.97;4952334;28;19925;-68
2023/10/13 06:44:52;;;;;;;;;;;;;;;9.15;66.44;98804.31;4968406;28;20405;-68
2023/10/13 06:47:20;;;;;;;;;;;;;;;9.31;66.01;98797.56;4967175;28;20045;-68
2023/10/13 06:49:48;;;;;;;;;;;;;;;9.42;65.31;98822.00;4948228;28;19932;-68
2023/10/13 06:52:16;;;;;;;;;;;;;;;9.42;65.04;98803.72;4948446;28;19926;-68
2023/10/13 06:54:43;;;;;;;;;;;;;;;9.39;63.63;98817.13;4949594;28;19981;-68
2023/10/13 06:57:14;;;;;;;;;;;;;;;9.30;63.11;98806.03;4947679;28;19933;-68
2023/10/13 06:59:40;;;;;;;;;;;;;;;9.21;63.54;98819.50;4959384;28;19996;-69
2023/10/13 07:02:09;;;;;;;;;;;;;;;9.28;63.30;98821.88;4967692;28;19982;-68
2023/10/13 07:04:39;;;;;;;;;;;;;;;9.90;61.06;98816.44;4949004;28;19926;-68
2023/10/13 07:07:05;;;;;;;;;;;;;;;9.85;59.59;98827.47;4969026;28;19926;-68
2023/10/13 07:12:03;;;;;;;;;;;;;;;10.17;58.56;98836.84;4967946;28;20029;-68
2023/10/13 07:14:33;;;;;;;;;;;;;;;10.64;57.08;98831.50;4965107;28;19949;-68
2023/10/13 07:17:00;;;;;;;;;;;;;;;10.78;56.71;98847.16;4962865;28;19933;-69
2023/10/13 07:19:30;;;;;;;;;;;;;;;10.91;57.15;98842.81;4947491;28;19926;-69
2023/10/13 07:21:59;;;;;;;;;;;;;;;10.43;57.94;98863.81;4965920;28;19926;-68
2023/10/13 07:24:27;;;;;;;;;;;;;;;9.99;59.13;98846.69;4962096;28;19942;-68
2023/10/13 07:27:01;;;;;;;;;;;;;;;9.78;59.97;98855.13;4956292;28;19926;-68
2023/10/13 07:29:28;;;;;;;;;;;;;;;9.70;60.50;98868.59;4960310;28;19973;-69
2023/10/13 07:31:54;;;;;;;;;;;;;;;9.66;60.96;98860.19;4946862;28;19926;-68
2023/10/13 07:34:26;;;;;;;;;;;;;;;9.51;60.59;98892.00;4950641;28;20398;-68
2023/10/13 07:37:00;;;;;;;;;;;;;;;9.73;60.54;98874.31;4965242;28;19968;-68
2023/10/13 07:39:28;;;;;;;;;;;;;;;9.84;60.14;98898.75;4967174;28;19925;-68
2023/10/13 07:41:55;;;;;;;;;;;;;;;10.11;57.63;98905.50;4934739;28;20425;-68
2023/10/13 07:44:24;;;;;;;;;;;;;;;10.00;58.30;98880.25;4949010;28;19926;-68
2023/10/13 07:46:58;;;;;;;;;;;;;;;10.01;58.38;98885.41;4963735;28;19972;-68
2023/10/13 07:49:30;;;;;;;;;;;;;;;10.18;57.95;98911.41;4956295;28;19925;-68
2023/10/13 07:52:00;;;;;;;;;;;;;;;10.32;56.67;98890.47;4939118;28;19932;-68
2023/10/13 07:54:26;;;;;;;;;;;;;;;10.93;55.80;98884.34;4934351;29;20124;-69
2023/10/13 07:56:55;;;;;;;;;;;;;;;11.49;52.45;98896.19;4957460;28;19948;-68
2023/10/13 07:59:22;;;;;;;;;;;;;;;11.34;52.94;98886.38;4964315;28;19932;-68
2023/10/13 08:01:56;;;;;;;;;;;;;;;11.35;52.51;98874.31;4964407;28;19969;-68
2023/10/13 08:04:28;;;;;;;;;;;;;;;11.59;52.98;98899.88;4965621;28;19926;-68
2023/10/13 08:07:02;;;;;;;;;;;;;;;12.24;52.42;98908.16;4951901;28;19926;-69
2023/10/13 08:09:30;;;;;;;;;;;;;;;13.04;48.67;98916.72;4965583;28;19938;-68
2023/10/13 08:11:56;;;;;;;;;;;;;;;12.40;50.08;98928.63;4967803;28;19957;-68
2023/10/13 08:14:22;;;;;;;;;;;;;;;11.73;51.99;98939.03;4967294;28;19968;-69
2023/10/13 08:16:59;;;;;;;;;;;;;;;11.24;53.78;98938.53;4948320;28;19925;-68
2023/10/13 08:19:39;;;;;;;;;;;;;;;11.19;54.12;98953.13;4948462;28;19980;-68
2023/10/13 08:23:13;;;;;;;;;;;;;;;10.81;53.41;98960.56;4947945;28;20064;-68
2023/10/13 08:30:51;;;;;;;;;;;;;;;11.68;51.90;98973.91;4967593;28;19926;-68
2023/10/13 08:33:17;;;;;;;;;;;;;;;12.12;49.34;98980.75;4953032;28;19926;-68
2023/10/13 08:35:54;;;;;;;;;;;;;;;12.57;46.84;98977.34;4966214;28;19926;-68
2023/10/13 08:38:28;;;;;;;;;;;;;;;12.60;47.43;98995.91;4947923;29;19926;-68
2023/10/13 08:41:53;;;;;;;;;;;;;;;13.09;45.32;98972.59;4955346;28;19926;-69
2023/10/13 08:43:50;;;;;;;;;;;;;;;12.93;45.13;98969.41;4961779;28;20032;-68
2023/10/13 08:46:28;;;;;;;;;;;;;;;13.02;45.23;98998.53;4965626;28;20393;-68
2023/10/13 08:49:04;;;;;;;;;;;;;;;12.17;46.39;98994.34;4961601;28;19933;-69
2023/10/13 08:51:43;;;;;;;;;;;;;;;12.09;46.88;99008.75;4957677;28;19930;-68
2023/10/13 08:54:19;;;;;;;;;;;;;;;11.52;48.10;99003.47;4962535;28;19926;-68
2023/10/13 08:56:56;;;;;;;;;;;;;;;11.32;49.52;99000.81;4963463;28;19930;-68
2023/10/13 08:59:23;;;;;;;;;;;;;;;11.51;48.85;98983.50;4950124;28;19973;-68
2023/10/13 09:01:59;;;;;;;;;;;;;;;11.49;48.75;99019.38;4936258;28;20183;-68
2023/10/13 09:04:34;;;;;;;;;;;;;;;11.43;48.82;98989.66;4969634;28;20472;-68
2023/10/13 09:09:26;;;;;;;;;;;;;;;11.89;48.37;99013.47;4968067;28;19996;-68
2023/10/13 09:12:08;;;;;;;;;;;;;;;12.17;47.39;99023.66;4970190;28;20069;-68
2023/10/13 09:14:37;;;;;;;;;;;;;;;11.84;47.84;99026.44;4965037;28;19926;-67
2023/10/13 09:17:34;;;;;;;;;;;;;;;11.58;48.04;99014.03;4969756;28;20017;-69
2023/10/13 09:19:59;;;;;;;;;;;;;;;11.55;48.64;99030.25;4969110;28;19926;-68
2023/10/13 09:22:35;;;;;;;;;;;;;;;11.56;48.35;99042.84;4962877;28;20231;-69
2023/10/13 09:25:02;;;;;;;;;;;;;;;11.68;48.17;99034.16;4966403;28;19997;-68
2023/10/13 09:27:32;;;;;;;;;;;;;;;12.38;47.00;99039.72;4969040;28;20021;-68
2023/10/13 09:30:09;;;;;;;;;;;;;;;13.07;45.55;99037.97;4963559;28;19946;-69
2023/10/13 09:32:51;;;;;;;;;;;;;;;13.33;45.17;99049.94;4963970;28;19926;-68
2023/10/13 09:35:18;;;;;;;;;;;;;;;13.50;45.62;99039.44;4968410;28;19930;-68
2023/10/13 09:37:47;;;;;;;;;;;;;;;13.84;44.97;99047.09;4969913;28;20021;-68
2023/10/13 09:40:27;;;;;;;;;;;;;;;14.09;43.31;99036.50;4967761;28;19938;-69
2023/10/13 09:42:56;;;;;;;;;;;;;;;13.89;43.65;99032.38;4969443;28;20381;-68
2023/10/13 09:45:27;;;;;;;;;;;;;;;13.44;43.99;99046.97;4964851;28;20394;-68
2023/10/13 09:47:57;;;;;;;;;;;;;;;13.62;44.01;99080.88;4960028;28;20441;-69
2023/10/13 09:50:24;;;;;;;;;;;;;;;13.38;43.46;99068.22;4963344;28;20302;-69
2023/10/13 09:52:53;;;;;;;;;;;;;;;13.12;44.76;99057.03;4967667;28;19933;-68
2023/10/13 09:55:25;;;;;;;;;;;;;;;13.63;43.34;99063.28;4965169;28;20016;-68
2023/10/13 09:57:57;;;;;;;;;;;;;;;14.09;42.32;99065.94;4965353;28;19969;-68
2023/10/13 10:03:14;;;;;;;;;;;;;;;15.77;39.36;99070.56;4962881;28;19930;-68
2023/10/13 10:05:40;;;;;;;;;;;;;;;16.61;38.27;99083.06;4962871;28;19941;-68
2023/10/13 10:08:09;;;;;;;;;;;;;;;15.82;38.68;99075.88;4963840;28;19926;-69
2023/10/13 10:10:47;;;;;;;;;;;;;;;15.24;39.46;99075.31;4965439;28;20447;-69
2023/10/13 10:13:19;;;;;;;;;;;;;;;16.50;37.21;99096.44;4934721;29;20410;-69
2023/10/13 10:15:49;;;;;;;;;;;;;;;16.61;36.45;99102.41;4957338;28;20103;-69
2023/10/13 10:18:21;;;;;;;;;;;;;;;15.88;38.08;99104.09;4967401;28;19929;-69
2023/10/13 10:20:48;;;;;;;;;;;;;;;15.94;38.83;99102.81;4965926;28;20269;-68
2023/10/13 10:23:23;;;;;;;;;;;;;;;16.66;38.10;99109.69;4961662;28;19945;-68
2023/10/13 10:25:51;;;;;;;;;;;;;;;17.41;36.23;99100.75;4957756;28;19934;-68
2023/10/13 10:28:19;;;;;;;;;;;;;;;17.40;36.89;99120.44;4948289;29;20374;-68
2023/10/13 10:30:44;;;;;;;;;;;;;;;17.70;34.55;99131.41;4959291;28;20302;-68
2023/10/13 10:33:13;;;;;;;;;;;;;;;17.78;33.91;99138.00;4968679;28;19925;-68
2023/10/13 10:35:40;;;;;;;;;;;;;;;17.34;34.92;99127.31;4965319;28;20017;-68
2023/10/13 10:40:58;;;;;;;;;;;;;;;17.10;35.46;99132.34;4965651;28;19941;-68
2023/10/13 10:43:26;;;;;;;;;;;;;;;16.47;36.29;99144.03;4949315;28;19932;-68
2023/10/13 10:45:52;;;;;;;;;;;;;;;16.96;36.27;99140.06;4967685;28;19926;-68
2023/10/13 10:48:20;;;;;;;;;;;;;;;16.29;36.53;99154.28;4964223;28;19941;-69
2023/10/13 10:50:53;;;;;;;;;;;;;;;15.83;36.92;99149.16;4945352;28;19953;-68
2023/10/13 10:53:19;;;;;;;;;;;;;;;15.34;38.22;99143.84;4967177;28;19972;-68
2023/10/13 10:55:45;;;;;;;;;;;;;;;16.42;36.13;99163.53;4950878;28;19926;-68
2023/10/13 10:58:28;;;;;;;;;;;;;;;17.44;33.74;99144.28;4948624;28;19932;-68
2023/10/13 11:01:10;;;;;;;;;;;;;;;18.38;31.92;99146.84;4963692;28;19926;-68
2023/10/13 11:03:41;;;;;;;;;;;;;;;19.26;30.45;99164.31;4966878;28;19950;-68
2023/10/13 11:06:17;;;;;;;;;;;;;;;19.88;30.25;99161.34;4947360;28;19926;-68
2023/10/13 11:08:50;;;;;;;;;;;;;;;20.18;29.06;99169.31;4944683;29;19957;-68
2023/10/13 11:11:17;;;;;;;;;;;;;;;19.97;29.39;99181.44;4950276;28;19926;-68
2023/10/13 11:14:13;;;;;;;;;;;;;;;20.04;29.59;99171.72;4944124;28;19931;-68
2023/10/13 11:16:44;;;;;;;;;;;;;;;19.94;29.20;99184.13;4945608;29;20461;-68
2023/10/13 11:19:11;;;;;;;;;;;;;;;20.83;28.71;99182.09;4945768;28;19973;-68
2023/10/13 11:21:37;;;;;;;;;;;;;;;21.27;27.09;99177.56;4944294;28;20386;-69
2023/10/13 11:24:08;;;;;;;;;;;;;;;20.78;27.99;99175.97;4961845;28;20362;-68
2023/10/13 11:26:34;;;;;;;;;;;;;;;20.35;28.67;99176.50;4946300;28;19926;-68
2023/10/13 11:29:06;;;;;;;;;;;;;;;20.19;28.93;99192.31;4945437;29;19926;-68
2023/10/13 11:31:32;;;;;;;;;;;;;;;20.25;27.81;99177.03;4962908;28;20036;-69
2023/10/13 11:34:01;;;;;;;;;;;;;;;20.36;27.61;99194.75;4946057;29;20021;-68
2023/10/13 11:36:33;;;;;;;;;;;;;;;20.64;27.19;99196.69;4962199;28;20419;-69
2023/10/13 11:38:59;;;;;;;;;;;;;;;20.43;27.34;99196.13;4962816;28;19927;-69
2023/10/13 11:41:32;;;;;;;;;;;;;;;20.76;27.61;99194.97;4946672;28;21083;-69
2023/10/13 11:44:13;;;;;;;;;;;;;;;21.69;26.65;99203.91;4947171;29;20406;-69
2023/10/13 11:51:44;;;;;;;;;;;;;;;21.48;27.04;99209.78;4945484;28;19926;-69
2023/10/13 11:54:10;;;;;;;;;;;;;;;21.60;26.04;99181.03;4959829;28;19968;-69
2023/10/13 11:56:38;;;;;;;;;;;;;;;21.67;26.58;99193.16;4959428;28;20553;-69
2023/10/13 11:59:05;;;;;;;;;;;;;;;22.23;25.68;99205.00;4958977;28;19926;-69
2023/10/13 12:07:20;;;;;;;;;;;;;;;21.16;26.86;99220.97;4963273;28;20087;-69
2023/10/13 12:12:21;;;;;;;;;;;;;;;20.64;27.50;99223.66;4965337;28;19926;-69
2023/10/13 12:14:56;;;;;;;;;;;;;;;20.36;27.93;99216.97;4965583;28;20400;-69
2023/10/13 12:17:36;;;;;;;;;;;;;;;20.92;27.53;99220.81;4966194;28;19979;-69
2023/10/13 12:20:04;;;;;;;;;;;;;;;21.39;26.36;99223.91;4964863;28;20356;-69
2023/10/13 12:22:51;;;;;;;;;;;;;;;21.66;26.16;99218.56;4947059;28;19990;-69
2023/10/13 12:25:44;;;;;;;;;;;;;;;22.19;26.09;99220.03;4963690;28;20393;-69
2023/10/13 12:28:18;;;;;;;;;;;;;;;23.15;25.27;99224.91;4964171;28;20296;-69
2023/10/13 12:30:53;;;;;;;;;;;;;;;23.92;24.87;99224.00;4963000;28;19926;-69
2023/10/13 12:33:27;;;;;;;;;;;;;;;23.24;24.30;99224.63;4966142;28;20131;-69
2023/10/13 12:36:26;;;;;;;;;;;;;;;22.54;25.20;99235.81;4949716;28;19925;-69
2023/10/13 12:52:16;;;;;;;;;;;;;;;19.45;28.78;99234.94;4966679;28;19972;-69
2023/10/13 12:55:26;;;;;;;;;;;;;;;19.63;28.69;99261.25;4948478;28;19957;-68
2023/10/13 12:57:33;;;;;;;;;;;;;;;19.57;28.78;99237.69;4958908;28;20013;-69
2023/10/13 12:59:59;;;;;;;;;;;;;;;19.67;28.76;99245.53;4966161;28;19953;-68
2023/10/13 13:02:25;;;;;;;;;;;;;;;20.18;28.79;99241.47;4964818;28;19927;-69
2023/10/13 13:04:54;;;;;;;;;;;;;;;20.35;28.47;99247.88;4947247;28;19926;-69
2023/10/13 13:07:20;;;;;;;;;;;;;;;20.53;28.01;99253.94;4968601;28;19973;-68
2023/10/13 13:09:48;;;;;;;;;;;;;;;19.71;28.80;99245.63;4965291;28;19930;-68
2023/10/13 13:12:14;;;;;;;;;;;;;;;19.78;29.23;99259.72;4970907;28;20429;-68
2023/10/13 13:14:46;;;;;;;;;;;;;;;19.55;29.88;99256.66;4950147;28;19969;-68
2023/10/13 13:17:12;;;;;;;;;;;;;;;19.62;29.76;99267.94;4948130;28;20028;-69
2023/10/13 13:19:40;;;;;;;;;;;;;;;19.90;29.77;99264.44;4952093;28;19926;-69
2023/10/13 13:22:13;;;;;;;;;;;;;;;19.98;29.40;99277.41;4968513;28;19964;-68
2023/10/13 13:24:43;;;;;;;;;;;;;;;19.87;29.45;99256.00;4947470;28;19933;-68
2023/10/13 13:27:13;;;;;;;;;;;;;;;19.77;29.56;99285.84;4958594;28;20024;-69
2023/10/13 13:29:39;;;;;;;;;;;;;;;19.48;30.58;99276.63;4965532;28;19926;-68
2023/10/13 13:32:06;;;;;;;;;;;;;;;19.62;30.33;99278.25;4970201;28;19988;-69
2023/10/13 13:34:32;;;;;;;;;;;;;;;19.82;30.07;99290.31;4970576;28;19978;-69
2023/10/13 13:37:00;;;;;;;;;;;;;;;19.55;29.67;99287.16;4952673;28;19926;-69
2023/10/13 13:39:31;;;;;;;;;;;;;;;19.10;30.25;99286.91;4967186;28;19926;-69
2023/10/13 13:41:56;;;;;;;;;;;;;;;18.30;30.95;99293.59;4965833;28;20022;-69
2023/10/13 13:44:29;;;;;;;;;;;;;;;18.20;31.88;99290.09;4950687;28;20028;-68
2023/10/13 13:46:56;;;;;;;;;;;;;;;17.86;32.26;99295.53;4969846;28;19933;-69
2023/10/13 13:49:29;;;;;;;;;;;;;;;16.67;33.92;99296.22;4969021;28;19926;-68
2023/10/13 13:51:55;;;;;;;;;;;;;;;14.92;36.51;99301.16;4950706;28;19926;-69
2023/10/13 13:54:20;;;;;;;;;;;;;;;13.74;38.61;99311.06;4948080;28;19933;-68
2023/10/13 13:56:46;;;;;;;;;;;;;;;13.12;40.26;99315.84;4965202;28;19937;-68
2023/10/13 13:59:15;;;;;;;;;;;;;;;12.72;41.53;99330.03;4964451;28;19926;-68
2023/10/13 14:01:44;;;;;;;;;;;;;;;12.32;42.11;99321.34;4969332;28;20348;-68
2023/10/13 14:04:10;;;;;;;;;;;;;;;12.11;42.79;99329.06;4949004;28;19926;-68
2023/10/13 14:06:37;;;;;;;;;;;;;;;11.91;43.09;99326.25;4949516;28;19927;-68
2023/10/13 14:09:13;;;;;;;;;;;;;;;11.78;43.88;99333.31;4948867;28;19933;-68
2023/10/13 14:12:42;;;;;;;;;;;;;;;11.68;44.17;99330.69;4963129;28;20354;-68
2023/10/13 14:14:37;;;;;;;;;;;;;;;11.59;44.98;99324.25;4935411;29;19926;-68
2023/10/13 14:17:07;;;;;;;;;;;;;;;11.54;45.04;99341.53;4942209;29;20004;-69
2023/10/13 14:19:33;;;;;;;;;;;;;;;11.43;45.42;99350.97;4945220;29;19933;-68
2023/10/13 14:22:02;;;;;;;;;;;;;;;11.31;46.10;99341.25;4943925;29;20021;-68
2023/10/13 14:24:35;;;;;;;;;;;;;;;11.24;46.34;99368.16;4944672;28;19933;-68
2023/10/13 14:27:08;;;;;;;;;;;;;;;10.99;46.74;99328.19;4946645;29;19926;-68
2023/10/13 14:29:34;;;;;;;;;;;;;;;11.09;47.40;99365.56;4939870;29;19934;-68
2023/10/13 14:32:06;;;;;;;;;;;;;;;11.00;47.69;99362.66;4946351;29;19926;-68
2023/10/13 14:34:34;;;;;;;;;;;;;;;10.91;48.27;99368.72;4949370;29;20437;-68
2023/10/13 14:37:00;;;;;;;;;;;;;;;10.83;48.60;99371.28;4948773;28;19937;-68
2023/10/13 14:39:29;;;;;;;;;;;;;;;10.76;48.80;99375.16;4960541;28;19927;-68
2023/10/13 14:41:55;;;;;;;;;;;;;;;10.67;49.64;99382.34;4956004;28;20358;-68
2023/10/13 14:44:26;;;;;;;;;;;;;;;10.68;49.13;99389.44;4948091;28;19926;-68
2023/10/13 14:46:54;;;;;;;;;;;;;;;10.68;49.56;99394.91;4944643;28;19932;-67
2023/10/13 14:49:22;;;;;;;;;;;;;;;10.64;50.20;99397.41;4943958;29;19958;-68
2023/10/13 14:51:49;;;;;;;;;;;;;;;10.57;50.64;99390.63;4941953;29;20024;-69
2023/10/13 14:54:15;;;;;;;;;;;;;;;10.54;50.41;99388.47;4944863;28;19936;-68
2023/10/13 14:56:43;;;;;;;;;;;;;;;10.51;50.59;99392.59;4945436;28;19926;-68
2023/10/13 14:59:16;;;;;;;;;;;;;;;10.43;51.15;99415.88;4960277;28;20412;-68
2023/10/13 15:01:42;;;;;;;;;;;;;;;10.40;50.78;99418.31;4960368;28;19965;-68
2023/10/13 15:04:09;;;;;;;;;;;;;;;10.34;51.54;99415.63;4951632;28;19931;-68
2023/10/13 15:06:36;;;;;;;;;;;;;;;10.29;51.68;99410.16;4960379;28;19926;-68
2023/10/13 15:09:03;;;;;;;;;;;;;;;10.29;51.58;99429.31;4946690;28;20065;-67
2023/10/13 15:11:38;;;;;;;;;;;;;;;10.26;51.64;99416.22;4945149;28;19930;-68
2023/10/13 15:14:06;;;;;;;;;;;;;;;10.22;51.74;99431.53;4945415;28;19926;-68
2023/10/13 15:16:33;;;;;;;;;;;;;;;10.18;52.29;99422.28;4964071;28;19962;-68
2023/10/13 15:18:59;;;;;;;;;;;;;;;10.14;52.57;99432.13;4962459;28;20174;-68
2023/10/13 15:21:28;;;;;;;;;;;;;;;10.12;52.35;99437.88;4963074;28;19930;-68
2023/10/13 15:23:59;;;;;;;;;;;;;;;10.08;52.49;99429.41;4964011;28;19937;-68
2023/10/13 15:26:25;;;;;;;;;;;;;;;10.01;53.06;99428.91;4965058;28;19958;-68
2023/10/13 15:28:55;;;;;;;;;;;;;;;9.98;52.88;99445.03;4967318;28;19965;-68
2023/10/13 15:34:04;;;;;;;;;;;;;;;9.86;53.98;99450.81;4961475;28;20337;-68
2023/10/13 15:36:32;;;;;;;;;;;;;;;9.85;53.96;99449.19;4954643;28;19932;-68
2023/10/13 15:39:00;;;;;;;;;;;;;;;9.81;54.55;99453.56;4945320;28;19933;-68
2023/10/13 15:41:27;;;;;;;;;;;;;;;9.78;54.26;99446.75;4956156;28;20270;-68
2023/10/13 15:43:54;;;;;;;;;;;;;;;9.76;54.18;99451.69;4955027;28;20385;-69
2023/10/13 15:46:20;;;;;;;;;;;;;;;9.72;54.68;99458.78;4958531;28;19926;-68
2023/10/13 15:48:46;;;;;;;;;;;;;;;9.68;54.95;99461.25;4953049;28;19963;-68
2023/10/13 15:51:12;;;;;;;;;;;;;;;9.57;54.78;99444.06;4962296;28;19965;-68
2023/10/13 15:53:38;;;;;;;;;;;;;;;9.72;54.83;99467.78;4940118;28;19972;-68
2023/10/13 15:56:12;;;;;;;;;;;;;;;9.70;54.52;99469.97;4942731;28;19930;-68